Helsinge, Denmark
Current Conditions -  °F | °C
As of 2:50 PM on Thursday 30 Oct 2014 (Local Time) from EKRK Reporting Station
Few Clouds Few Clouds  
Wind Chill: 50°   Ceiling: Unl
Heat Index: 50°   Visibility: 6mi
Dew Point: 41°   Wind: 3mph
Humidity: 71%   Direction: 280°W
Pressure: 30.24"   Gusts: NA
Location:  56.02°N, 12.2°E
Report Text: EKRK 301350Z AUTO 28003KT 9999NDV FEW180/// 10/05 Q1024
Loading
Personal Weather Stations






























Interactive Weather Map New forecast layout! Learn more

10-Day Weather Forecast

Advertisements
Track Severe Weather on mobile